Time;durP1;ratioP1;P1;durP2;ratioP2;P2;SDS_P1;SDS_P2;PMS_P1;PMS_P2;Temp;Humidity;BMP_temperature;BMP_pressure;BME280_temperature;BME280_humidity;BME280_pressure;Samples;Min_cycle;Max_cycle;Signal;HPM_P1;HPM_P2
2021/04/11 00:03:56;;;;;;;2.53;1.97;;;13.20;62.10;;;;;;10448833;28;20205;-82
2021/04/11 00:08:59;;;;;;;2.40;2.00;;;13.20;62.00;;;;;;10450538;28;20243;-82
2021/04/11 00:14:01;;;;;;;3.30;2.03;;;13.10;62.50;;;;;;10450475;28;20235;-82
2021/04/11 00:19:17;;;;;;;1.90;1.80;;;13.10;62.60;;;;;;10455323;28;20222;-81
2021/04/11 00:24:23;;;;;;;1.90;1.80;;;13.00;62.80;;;;;;10411317;28;20200;-82
2021/04/11 00:29:24;;;;;;;2.07;1.97;;;12.90;63.10;;;;;;10426696;28;20233;-82
2021/04/11 00:34:26;;;;;;;2.73;2.27;;;12.80;63.30;;;;;;10426554;28;20198;-81
2021/04/11 00:39:31;;;;;;;2.23;2.03;;;12.70;63.50;;;;;;10414319;28;20210;-81
2021/04/11 00:44:33;;;;;;;2.03;1.93;;;12.60;64.20;;;;;;10425279;28;20196;-82
2021/04/11 00:49:48;;;;;;;2.10;1.90;;;12.50;64.30;;;;;;10423933;28;20218;-82
2021/04/11 00:54:51;;;;;;;2.10;2.00;;;12.40;64.50;;;;;;10420516;28;20247;-83
2021/04/11 00:59:53;;;;;;;2.00;1.90;;;12.30;65.00;;;;;;10413108;28;20229;-82
2021/04/11 01:04:54;;;;;;;2.20;2.00;;;12.20;65.20;;;;;;10411926;28;20665;-81
2021/04/11 01:09:58;;;;;;;3.27;2.33;;;12.10;65.30;;;;;;10401648;28;20271;-82
2021/04/11 01:14:59;;;;;;;2.00;1.90;;;12.10;65.70;;;;;;10419932;28;20202;-82
2021/04/11 01:20:08;;;;;;;3.40;2.17;;;12.00;65.50;;;;;;10403877;28;20308;-82
2021/04/11 01:25:17;;;;;;;2.07;1.80;;;12.00;65.50;;;;;;10401288;28;20685;-83
2021/04/11 01:30:24;;;;;;;3.00;2.07;;;12.00;65.70;;;;;;10419398;28;20222;-83
2021/04/11 01:35:28;;;;;;;1.77;1.67;;;12.10;65.60;;;;;;10399999;28;20284;-82
2021/04/11 01:40:38;;;;;;;1.80;1.70;;;12.10;65.20;;;;;;10415135;28;20600;-82
2021/04/11 01:45:43;;;;;;;1.87;1.77;;;12.10;65.30;;;;;;10399077;28;20228;-80
2021/04/11 01:50:47;;;;;;;1.60;1.50;;;12.10;65.50;;;;;;10399628;28;20607;-82
2021/04/11 01:55:52;;;;;;;1.90;1.80;;;12.10;65.80;;;;;;10417439;28;20202;-81
2021/04/11 02:01:06;;;;;;;3.00;1.87;;;12.20;65.60;;;;;;10418217;28;20228;-81
2021/04/11 02:06:12;;;;;;;1.90;1.67;;;12.30;65.60;;;;;;10419706;28;20205;-81
2021/04/11 02:11:16;;;;;;;1.83;1.73;;;12.30;65.90;;;;;;10428048;28;20245;-83
2021/04/11 02:16:23;;;;;;;2.60;2.00;;;12.40;65.90;;;;;;10430124;28;20198;-82
2021/04/11 02:21:27;;;;;;;2.13;1.80;;;12.50;66.40;;;;;;10422042;28;20214;-82
2021/04/11 02:26:31;;;;;;;2.20;2.00;;;12.50;66.40;;;;;;10415108;28;20206;-85
2021/04/11 02:31:38;;;;;;;2.20;2.00;;;12.50;67.80;;;;;;10400578;28;20693;-82
2021/04/11 02:36:50;;;;;;;1.83;1.73;;;12.50;67.30;;;;;;10402577;28;20205;-80
2021/04/11 02:42:00;;;;;;;1.97;1.87;;;12.50;68.20;;;;;;10406931;28;20214;-80
2021/04/11 02:47:04;;;;;;;1.93;1.83;;;12.50;69.20;;;;;;10424259;28;20225;-82
2021/04/11 02:52:14;;;;;;;2.40;2.30;;;12.50;70.20;;;;;;10420882;28;20226;-80
2021/04/11 02:57:18;;;;;;;2.60;2.40;;;12.40;70.80;;;;;;10428169;28;20213;-80
2021/04/11 03:02:20;;;;;;;3.47;2.37;;;12.40;71.00;;;;;;10445554;28;20214;-82
2021/04/11 03:07:38;;;;;;;2.07;1.97;;;12.40;71.80;;;;;;10432675;28;20189;-84
2021/04/11 03:12:43;;;;;;;2.40;2.17;;;12.40;72.80;;;;;;10453303;28;20264;-80
2021/04/11 03:17:49;;;;;;;1.97;1.87;;;12.40;72.30;;;;;;10447243;28;20194;-82
2021/04/11 03:22:52;;;;;;;3.10;2.17;;;12.40;72.70;;;;;;10426739;28;20206;-81
2021/04/11 03:28:02;;;;;;;2.80;1.90;;;12.30;72.50;;;;;;10426457;28;20218;-80
2021/04/11 03:33:09;;;;;;;2.20;2.00;;;12.30;72.80;;;;;;10428430;28;20371;-81
2021/04/11 03:38:15;;;;;;;2.10;1.97;;;12.30;72.10;;;;;;10411308;28;20233;-81
2021/04/11 03:43:23;;;;;;;1.90;1.80;;;12.30;71.40;;;;;;10427330;28;20194;-81
2021/04/11 03:48:34;;;;;;;2.77;2.13;;;12.30;71.50;;;;;;10426784;28;20245;-79
2021/04/11 03:53:41;;;;;;;1.90;1.80;;;12.20;72.10;;;;;;10436211;28;20216;-81
2021/04/11 03:58:47;;;;;;;4.33;2.30;;;12.20;71.50;;;;;;10423665;28;20249;-80
2021/04/11 04:04:04;;;;;;;2.13;1.93;;;12.20;71.30;;;;;;10420599;28;20197;-80
2021/04/11 04:09:06;;;;;;;2.00;1.90;;;12.20;71.50;;;;;;10418144;28;20604;-81
2021/04/11 04:14:22;;;;;;;2.63;1.77;;;12.20;70.80;;;;;;10423168;28;20198;-80
2021/04/11 04:19:32;;;;;;;4.90;2.10;;;12.20;70.40;;;;;;10424417;28;20206;-81
2021/04/11 04:24:49;;;;;;;2.60;2.10;;;12.20;70.10;;;;;;10423899;28;20194;-81
2021/04/11 04:30:11;;;;;;;2.07;1.97;;;12.20;70.70;;;;;;10417019;28;20214;-80
2021/04/11 04:35:26;;;;;;;2.93;2.73;;;12.20;69.80;;;;;;10419318;28;20228;-80
2021/04/11 04:40:47;;;;;;;3.43;3.13;;;12.30;70.20;;;;;;10416407;28;20260;-81
2021/04/11 04:46:14;;;;;;;2.60;2.40;;;12.30;69.70;;;;;;10417795;28;20204;-80
2021/04/11 04:51:21;;;;;;;2.30;2.20;;;12.40;69.60;;;;;;10400454;28;20251;-80
2021/04/11 04:56:36;;;;;;;1.90;1.80;;;12.40;69.60;;;;;;10416198;28;20605;-81
2021/04/11 05:01:45;;;;;;;2.93;2.07;;;12.40;70.10;;;;;;10417099;28;20288;-81
2021/04/11 05:06:55;;;;;;;2.33;2.23;;;12.50;70.00;;;;;;10418861;28;20198;-81
2021/04/11 05:12:13;;;;;;;2.33;2.23;;;12.50;70.30;;;;;;10434994;28;20300;-82
2021/04/11 05:17:20;;;;;;;2.13;1.93;;;12.50;70.20;;;;;;10458837;28;20185;-81
2021/04/11 05:22:31;;;;;;;3.30;2.10;;;12.50;70.50;;;;;;10458004;28;20680;-81
2021/04/11 05:27:45;;;;;;;2.30;2.10;;;12.50;71.00;;;;;;10412290;28;20194;-81
2021/04/11 05:32:49;;;;;;;2.77;2.57;;;12.50;71.00;;;;;;10410769;28;20228;-83
2021/04/11 05:38:04;;;;;;;2.40;2.20;;;12.50;71.10;;;;;;10417715;28;20222;-82
2021/04/11 05:43:09;;;;;;;2.77;2.30;;;12.50;71.50;;;;;;10421165;28;20198;-82
2021/04/11 05:48:24;;;;;;;2.63;2.20;;;12.60;71.80;;;;;;10409513;28;20642;-81
2021/04/11 05:53:30;;;;;;;4.93;2.43;;;12.70;71.90;;;;;;10438397;28;20193;-81
2021/04/11 05:58:36;;;;;;;3.63;2.00;;;12.80;72.20;;;;;;10457715;28;20250;-81
2021/04/11 06:03:48;;;;;;;4.00;2.27;;;12.90;72.30;;;;;;10470164;28;20208;-81
2021/04/11 06:08:59;;;;;;;2.50;2.30;;;12.90;72.10;;;;;;10456045;28;20224;-81
2021/04/11 06:14:05;;;;;;;2.53;2.33;;;13.00;71.70;;;;;;10480110;28;20194;-81
2021/04/11 06:19:09;;;;;;;2.53;2.33;;;13.10;71.70;;;;;;10474354;28;20217;-81
2021/04/11 06:24:23;;;;;;;4.07;3.10;;;13.20;71.50;;;;;;10454213;28;20201;-82
2021/04/11 06:29:28;;;;;;;19.07;10.60;;;13.30;71.20;;;;;;10483555;28;20209;-82
2021/04/11 06:34:36;;;;;;;22.43;12.00;;;13.50;70.00;;;;;;10482483;28;20197;-81
2021/04/11 06:39:41;;;;;;;36.97;20.17;;;13.60;70.80;;;;;;10487414;28;20209;-82
2021/04/11 06:45:06;;;;;;;25.40;13.97;;;13.90;70.80;;;;;;10488053;28;20251;-81
2021/04/11 06:50:33;;;;;;;11.87;7.63;;;14.10;71.40;;;;;;10487504;28;20597;-82
2021/04/11 06:55:53;;;;;;;7.77;4.80;;;14.30;71.60;;;;;;10472580;28;20286;-82
2021/04/11 07:01:21;;;;;;;4.67;3.30;;;14.50;70.50;;;;;;10501693;28;20224;-81
2021/04/11 07:07:07;;;;;;;2.90;2.70;;;14.70;70.30;;;;;;10487074;28;20208;-81
2021/04/11 07:12:45;;;;;;;3.70;2.50;;;14.80;68.50;;;;;;10477749;28;20221;-81
2021/04/11 07:18:36;;;;;;;3.90;2.40;;;15.00;67.80;;;;;;10480606;28;20204;-81
2021/04/11 07:24:16;;;;;;;2.30;2.10;;;15.20;67.00;;;;;;10470343;28;20197;-83
2021/04/11 07:29:30;;;;;;;2.17;1.97;;;15.30;63.20;;;;;;10424428;28;20233;-83
2021/04/11 07:34:57;;;;;;;2.40;2.20;;;15.60;65.00;;;;;;10480457;28;20197;-81
2021/04/11 07:40:10;;;;;;;2.07;1.97;;;16.00;64.20;;;;;;10480442;28;20267;-80
2021/04/11 07:45:32;;;;;;;2.53;2.33;;;16.30;64.10;;;;;;10462935;28;20291;-80
2021/04/11 07:50:55;;;;;;;2.60;2.40;;;16.50;61.50;;;;;;10480508;28;20229;-82
2021/04/11 07:56:13;;;;;;;2.30;1.80;;;16.60;60.40;;;;;;10458471;28;20296;-80
2021/04/11 08:01:50;;;;;;;2.27;2.00;;;16.60;60.40;;;;;;10481484;28;20225;-80
2021/04/11 08:07:22;;;;;;;2.50;1.90;;;16.70;59.90;;;;;;10473549;28;20212;-81
2021/04/11 08:13:09;;;;;;;2.17;2.07;;;16.90;59.20;;;;;;10470123;28;20240;-82
2021/04/11 08:18:48;;;;;;;2.57;2.37;;;17.10;59.10;;;;;;10485175;28;20200;-83
2021/04/11 08:24:24;;;;;;;1.80;1.70;;;17.10;58.90;;;;;;10417080;28;20204;-80
2021/04/11 08:29:38;;;;;;;2.17;2.07;;;17.20;58.90;;;;;;10475933;28;20217;-80
2021/04/11 08:35:08;;;;;;;1.97;1.87;;;17.30;58.80;;;;;;10431736;28;20579;-80
2021/04/11 08:40:24;;;;;;;1.80;1.70;;;17.50;59.50;;;;;;10444875;28;20238;-80
2021/04/11 08:45:48;;;;;;;1.90;1.80;;;17.70;58.70;;;;;;10444426;28;20188;-82
2021/04/11 08:50:59;;;;;;;1.87;1.77;;;17.90;58.20;;;;;;10436797;28;20217;-79
2021/04/11 08:56:07;;;;;;;2.23;2.03;;;18.20;58.00;;;;;;10456975;28;20203;-81
2021/04/11 09:01:25;;;;;;;1.87;1.77;;;18.50;57.60;;;;;;10468095;28;20713;-79
2021/04/11 09:06:48;;;;;;;1.93;1.83;;;18.60;56.40;;;;;;10476400;28;20202;-80
2021/04/11 09:12:00;;;;;;;1.80;1.70;;;18.70;56.90;;;;;;10465339;28;20241;-82
2021/04/11 09:17:17;;;;;;;1.70;1.60;;;18.80;56.00;;;;;;10416218;28;20202;-78
2021/04/11 09:22:35;;;;;;;2.00;1.90;;;18.80;56.90;;;;;;10433060;28;20228;-79
2021/04/11 09:28:14;;;;;;;1.70;1.60;;;18.90;55.90;;;;;;10458183;28;20290;-79
2021/04/11 09:33:47;;;;;;;2.13;2.03;;;18.90;55.40;;;;;;10453349;28;20641;-79
2021/04/11 09:39:23;;;;;;;1.83;1.73;;;18.80;56.00;;;;;;10455511;28;20213;-80
2021/04/11 09:44:57;;;;;;;2.30;2.20;;;18.70;55.90;;;;;;10438646;28;20616;-79
2021/04/11 09:50:20;;;;;;;2.13;2.03;;;18.80;56.10;;;;;;10456170;28;20205;-79
2021/04/11 09:55:24;;;;;;;4.80;2.10;;;19.00;55.70;;;;;;10470005;28;20197;-79
2021/04/11 10:00:34;;;;;;;2.60;2.20;;;19.30;56.10;;;;;;10460916;28;20672;-79
2021/04/11 10:05:46;;;;;;;2.60;2.00;;;19.50;55.50;;;;;;10466596;28;20221;-79
2021/04/11 10:11:01;;;;;;;2.60;1.70;;;19.70;54.70;;;;;;10469057;28;20252;-79
2021/04/11 10:16:18;;;;;;;2.00;1.90;;;19.90;54.70;;;;;;10464538;28;20548;-79
2021/04/11 10:21:30;;;;;;;1.87;1.77;;;19.80;54.70;;;;;;10465123;28;20690;-79
2021/04/11 10:26:39;;;;;;;2.17;2.03;;;19.60;53.20;;;;;;10452050;28;20252;-79
2021/04/11 10:31:48;;;;;;;2.47;2.33;;;19.60;54.00;;;;;;10449953;28;20217;-80
2021/04/11 10:36:54;;;;;;;2.93;2.53;;;19.60;54.10;;;;;;10454420;28;20552;-80
2021/04/11 10:42:13;;;;;;;2.23;1.93;;;19.90;54.00;;;;;;10455722;28;20257;-80
2021/04/11 10:47:34;;;;;;;3.07;2.13;;;20.20;53.50;;;;;;10425923;28;20672;-82
2021/04/11 10:53:13;;;;;;;2.23;2.13;;;20.40;53.30;;;;;;10464217;28;20229;-82
2021/04/11 10:58:39;;;;;;;1.80;1.70;;;20.40;52.60;;;;;;10447370;28;20273;-82
2021/04/11 11:04:30;;;;;;;2.60;1.90;;;20.20;51.30;;;;;;10464424;28;20181;-81
2021/04/11 11:09:39;;;;;;;2.60;2.23;;;19.80;52.50;;;;;;10462221;28;20244;-81
2021/04/11 11:15:20;;;;;;;2.00;1.90;;;19.50;52.30;;;;;;10459082;28;20206;-78
2021/04/11 11:20:26;;;;;;;2.80;2.17;;;19.10;53.50;;;;;;10460137;28;20217;-80
2021/04/11 11:25:53;;;;;;;1.97;1.87;;;18.90;53.70;;;;;;10444482;28;20197;-82
2021/04/11 11:31:15;;;;;;;2.37;2.27;;;18.80;54.60;;;;;;10460062;28;20209;-83
2021/04/11 11:36:31;;;;;;;2.47;2.27;;;18.70;54.50;;;;;;10440451;28;20646;-81
2021/04/11 11:41:46;;;;;;;2.20;2.10;;;18.70;55.10;;;;;;10443362;28;20208;-80
2021/04/11 11:46:55;;;;;;;2.20;2.10;;;18.80;53.80;;;;;;10440435;28;20193;-81
2021/04/11 11:52:04;;;;;;;2.27;2.07;;;19.10;55.20;;;;;;10447418;28;20225;-80
2021/04/11 11:57:17;;;;;;;2.07;1.97;;;19.40;53.60;;;;;;10453244;28;20194;-81
2021/04/11 12:02:35;;;;;;;2.00;1.90;;;19.60;54.30;;;;;;10457052;28;20245;-81
2021/04/11 12:07:42;;;;;;;2.20;2.10;;;19.80;53.30;;;;;;10420894;28;20669;-81
2021/04/11 12:12:55;;;;;;;2.57;2.43;;;19.80;52.70;;;;;;10457161;28;20221;-81
2021/04/11 12:18:09;;;;;;;2.53;2.37;;;19.80;52.90;;;;;;10456860;28;20292;-80
2021/04/11 12:23:22;;;;;;;2.23;2.13;;;19.80;53.60;;;;;;10455091;28;20637;-78
2021/04/11 12:28:27;;;;;;;2.23;2.03;;;20.00;53.70;;;;;;10454919;28;20610;-81
2021/04/11 12:33:41;;;;;;;3.00;2.20;;;20.00;53.80;;;;;;10456036;28;20221;-80
2021/04/11 12:38:46;;;;;;;2.20;2.10;;;20.10;52.60;;;;;;10467362;28;20221;-80
2021/04/11 12:44:02;;;;;;;1.90;1.80;;;20.10;54.00;;;;;;10470282;28;20220;-80
2021/04/11 12:49:10;;;;;;;2.33;2.13;;;20.20;53.60;;;;;;10477718;28;20209;-80
2021/04/11 12:54:19;;;;;;;2.10;2.00;;;20.20;52.60;;;;;;10470654;28;20201;-79
2021/04/11 12:59:26;;;;;;;2.20;2.00;;;20.20;54.80;;;;;;10480383;28;20233;-81
2021/04/11 13:04:32;;;;;;;2.37;2.27;;;20.10;55.70;;;;;;10468861;28;20681;-79
2021/04/11 13:09:47;;;;;;;2.73;2.40;;;19.90;56.40;;;;;;10462277;28;20239;-81
2021/04/11 13:15:01;;;;;;;3.80;2.43;;;19.60;56.40;;;;;;10460612;28;20566;-82
2021/04/11 13:20:11;;;;;;;3.47;2.10;;;19.30;57.40;;;;;;10460062;28;20220;-82
2021/04/11 13:25:19;;;;;;;2.33;2.23;;;19.30;57.10;;;;;;10457931;28;20193;-82
2021/04/11 13:30:25;;;;;;;2.10;2.00;;;19.20;57.80;;;;;;10442365;28;20282;-80
2021/04/11 13:35:34;;;;;;;2.83;2.63;;;19.00;58.10;;;;;;10439585;28;20201;-80
2021/04/11 13:40:37;;;;;;;2.33;2.13;;;18.90;58.80;;;;;;10453154;28;20228;-82
2021/04/11 13:45:46;;;;;;;2.13;2.00;;;18.90;59.80;;;;;;10443026;28;20209;-80
2021/04/11 13:51:03;;;;;;;5.10;2.00;;;18.90;59.00;;;;;;10447968;28;20701;-80
2021/04/11 13:56:17;;;;;;;2.10;2.00;;;19.00;58.90;;;;;;10459904;28;20193;-80
2021/04/11 14:01:31;;;;;;;2.40;2.07;;;19.00;59.40;;;;;;10446344;28;20213;-80
2021/04/11 14:06:36;;;;;;;2.03;1.90;;;19.10;59.30;;;;;;10448755;28;20201;-80
2021/04/11 14:11:49;;;;;;;2.67;1.83;;;19.10;59.20;;;;;;10449277;28;20241;-80
2021/04/11 14:16:59;;;;;;;1.90;1.80;;;18.90;58.50;;;;;;10442846;28;21040;-82
2021/04/11 14:22:07;;;;;;;2.40;2.30;;;18.90;59.70;;;;;;10435055;28;20213;-81
2021/04/11 14:27:17;;;;;;;2.30;2.10;;;18.80;60.80;;;;;;10453042;28;20190;-80
2021/04/11 14:32:25;;;;;;;2.30;2.10;;;18.80;59.80;;;;;;10456441;28;20311;-79
2021/04/11 14:37:32;;;;;;;2.80;2.07;;;18.90;60.00;;;;;;10444642;28;20669;-83
2021/04/11 14:42:39;;;;;;;2.03;1.93;;;18.90;60.00;;;;;;10462044;28;20952;-85
2021/04/11 14:47:48;;;;;;;2.10;2.00;;;18.90;59.70;;;;;;10461234;28;20637;-81
2021/04/11 14:52:57;;;;;;;2.40;2.20;;;18.80;60.60;;;;;;10465733;28;20216;-79
2021/04/11 14:58:11;;;;;;;2.20;2.00;;;18.70;60.80;;;;;;10443193;28;20632;-79
2021/04/11 15:03:29;;;;;;;2.50;2.30;;;18.60;61.50;;;;;;10460768;28;20548;-80
2021/04/11 15:08:35;;;;;;;2.50;2.33;;;18.60;62.30;;;;;;10461487;28;20879;-79
2021/04/11 15:13:46;;;;;;;4.60;2.83;;;18.60;62.00;;;;;;10434271;28;20205;-80
2021/04/11 15:18:58;;;;;;;2.77;2.50;;;18.70;62.70;;;;;;10455222;28;20300;-80
2021/04/11 15:24:13;;;;;;;3.80;2.40;;;18.50;63.00;;;;;;10447617;28;20244;-79
2021/04/11 15:29:20;;;;;;;3.10;2.80;;;18.40;63.60;;;;;;10447311;28;20261;-78
2021/04/11 15:34:44;;;;;;;2.60;2.40;;;18.20;64.00;;;;;;10455185;28;20204;-78
2021/04/11 15:39:58;;;;;;;2.53;2.43;;;18.00;64.70;;;;;;10462441;28;20591;-82
2021/04/11 15:45:09;;;;;;;2.40;2.20;;;17.70;65.40;;;;;;10458572;28;20224;-79
2021/04/11 15:50:18;;;;;;;2.40;2.00;;;17.30;66.00;;;;;;10462532;28;20697;-79
2021/04/11 15:55:24;;;;;;;4.33;2.80;;;17.10;67.70;;;;;;10442675;28;20193;-79
2021/04/11 16:00:31;;;;;;;2.20;2.10;;;16.70;71.90;;;;;;10462376;28;20243;-77
2021/04/11 16:05:39;;;;;;;2.60;2.40;;;16.40;75.60;;;;;;10459468;28;20193;-80
2021/04/11 16:11:03;;;;;;;2.50;2.30;;;16.00;79.70;;;;;;10449558;28;20221;-78
2021/04/11 16:16:18;;;;;;;2.50;2.40;;;15.70;81.80;;;;;;10451275;28;20197;-80
2021/04/11 16:21:43;;;;;;;2.80;2.70;;;15.30;83.80;;;;;;10459621;28;20671;-79
2021/04/11 16:26:57;;;;;;;3.40;2.93;;;15.20;85.80;;;;;;10452714;28;20300;-80
2021/04/11 16:32:10;;;;;;;3.07;2.87;;;15.00;88.10;;;;;;10453537;28;20231;-78
2021/04/11 16:37:37;;;;;;;3.10;2.90;;;15.00;88.90;;;;;;10439980;28;20673;-81
2021/04/11 16:42:49;;;;;;;2.80;2.60;;;15.00;89.40;;;;;;10423632;28;20206;-80
2021/04/11 16:48:00;;;;;;;5.20;4.70;;;15.00;88.80;;;;;;10440598;28;20197;-80
2021/04/11 16:53:12;;;;;;;3.27;2.97;;;14.90;89.40;;;;;;10449422;28;20237;-80
2021/04/11 16:58:23;;;;;;;2.10;2.00;;;14.90;89.40;;;;;;10465334;28;20200;-80
2021/04/11 17:03:36;;;;;;;2.00;1.90;;;14.80;88.70;;;;;;10456720;28;20185;-80
2021/04/11 17:08:44;;;;;;;1.93;1.83;;;14.80;88.90;;;;;;10451444;28;20221;-80
2021/04/11 17:13:52;;;;;;;1.90;1.80;;;14.70;89.00;;;;;;10458329;28;20202;-80
2021/04/11 17:19:04;;;;;;;2.43;2.33;;;14.60;89.00;;;;;;10459692;28;20236;-79
2021/04/11 17:24:16;;;;;;;2.30;2.20;;;14.50;89.10;;;;;;10440510;28;20204;-79
2021/04/11 17:29:23;;;;;;;1.97;1.87;;;14.50;89.00;;;;;;10453790;28;20213;-79
2021/04/11 17:34:36;;;;;;;1.90;1.80;;;14.40;90.00;;;;;;10448885;28;20709;-80
2021/04/11 17:39:44;;;;;;;2.20;2.00;;;14.30;89.20;;;;;;10454308;28;20221;-80
2021/04/11 17:45:02;;;;;;;1.80;1.70;;;14.30;89.00;;;;;;10453779;28;20542;-81
2021/04/11 17:56:39;;;;;;;1.60;1.50;;;14.10;88.00;;;;;;10434742;28;20700;-81
2021/04/11 18:02:00;;;;;;;1.40;1.30;;;14.00;88.20;;;;;;10401985;28;20247;-78
2021/04/11 18:07:09;;;;;;;1.67;1.57;;;14.00;88.80;;;;;;10449523;28;20201;-81
2021/04/11 18:12:20;;;;;;;1.80;1.70;;;14.00;89.30;;;;;;10461764;28;20845;-81
2021/04/11 18:17:26;;;;;;;1.70;1.60;;;13.90;89.90;;;;;;10446141;28;20205;-79
2021/04/11 18:22:38;;;;;;;1.47;1.47;;;13.90;90.30;;;;;;10464791;28;20217;-80
2021/04/11 18:27:56;;;;;;;1.60;1.50;;;13.80;90.80;;;;;;10465299;28;20190;-80
2021/04/11 18:33:05;;;;;;;1.83;1.73;;;13.70;91.50;;;;;;10466483;28;20221;-80
2021/04/11 18:38:19;;;;;;;2.20;2.10;;;13.60;92.30;;;;;;10466778;28;20316;-80
2021/04/11 18:43:27;;;;;;;2.73;2.53;;;13.50;93.10;;;;;;10465307;28;20197;-81
2021/04/11 18:48:54;;;;;;;2.97;2.87;;;13.30;94.10;;;;;;10456246;28;20636;-79
2021/04/11 18:54:09;;;;;;;4.20;4.00;;;13.10;95.50;;;;;;10465086;28;20217;-80
2021/04/11 18:59:52;;;;;;;5.10;4.90;;;12.90;96.90;;;;;;10471431;28;20233;-80
2021/04/11 19:05:12;;;;;;;5.90;5.60;;;12.80;98.90;;;;;;10465166;28;20205;-81
2021/04/11 19:10:32;;;;;;;6.30;6.00;;;12.70;99.90;;;;;;10457713;28;20224;-80
2021/04/11 19:15:49;;;;;;;6.77;6.43;;;12.60;99.90;;;;;;10463913;28;20211;-79
2021/04/11 19:21:25;;;;;;;7.30;7.00;;;12.50;99.90;;;;;;10453042;28;20220;-79
2021/04/11 19:27:01;;;;;;;7.93;7.57;;;12.50;99.90;;;;;;10447014;28;20224;-79
2021/04/11 19:32:45;;;;;;;7.60;7.30;;;12.50;99.90;;;;;;10436283;28;20702;-80
2021/04/11 19:38:02;;;;;;;7.80;7.40;;;12.40;99.90;;;;;;10456906;28;20244;-81
2021/04/11 19:43:59;;;;;;;9.33;8.83;;;12.40;99.90;;;;;;10453517;28;20223;-82
2021/04/11 19:49:40;;;;;;;10.50;9.80;;;12.20;99.90;;;;;;10439219;28;20217;-82
2021/04/11 19:54:58;;;;;;;12.37;11.57;;;11.90;99.90;;;;;;10452466;28;20224;-80
2021/04/11 20:00:33;;;;;;;12.13;11.43;;;11.80;99.90;;;;;;10454690;28;20235;-81
2021/04/11 20:06:07;;;;;;;11.17;10.37;;;11.50;99.90;;;;;;10439220;28;20858;-79
2021/04/11 20:11:26;;;;;;;10.33;9.73;;;11.20;99.90;;;;;;10456657;28;20217;-79
2021/04/11 20:17:01;;;;;;;10.47;9.87;;;11.00;99.90;;;;;;10452650;28;20200;-78
2021/04/11 20:22:19;;;;;;;10.47;9.87;;;10.80;99.90;;;;;;10445050;28;20217;-79
2021/04/11 20:28:04;;;;;;;11.83;11.03;;;10.60;99.90;;;;;;10457651;28;20201;-79
2021/04/11 20:33:21;;;;;;;13.20;12.30;;;10.50;99.90;;;;;;10388270;28;20281;-82
2021/04/11 20:39:06;;;;;;;14.60;13.50;;;10.40;99.90;;;;;;10482081;28;20277;-81
2021/04/11 20:44:37;;;;;;;16.87;15.57;;;10.30;99.90;;;;;;10403543;28;20211;-81
2021/04/11 20:55:06;;;;;;;17.83;16.43;;;9.90;99.90;;;;;;10444625;28;20291;-77
2021/04/11 21:00:42;;;;;;;20.40;18.80;;;9.80;99.90;;;;;;10449816;28;20299;-78
2021/04/11 21:05:51;;;;;;;18.03;16.53;;;9.70;99.90;;;;;;10433931;28;20213;-77
2021/04/11 21:11:07;;;;;;;16.87;15.57;;;9.70;99.90;;;;;;10447359;28;20220;-77
2021/04/11 21:16:29;;;;;;;16.93;15.53;;;9.60;99.90;;;;;;10410605;28;20208;-78
2021/04/11 21:22:11;;;;;;;18.00;16.60;;;9.50;99.90;;;;;;10430318;28;20667;-78
2021/04/11 21:27:45;;;;;;;18.07;16.67;;;9.40;99.90;;;;;;10408718;28;20711;-78
2021/04/11 21:32:56;;;;;;;15.00;13.90;;;9.40;99.90;;;;;;10425910;28;20251;-77
2021/04/11 21:38:15;;;;;;;14.80;13.73;;;9.40;99.90;;;;;;10427359;28;20655;-78
2021/04/11 21:43:20;;;;;;;14.40;13.37;;;9.30;99.90;;;;;;10450686;28;20743;-77
2021/04/11 21:48:53;;;;;;;15.50;14.40;;;9.30;99.90;;;;;;10448773;28;20256;-77
2021/04/11 21:54:10;;;;;;;14.27;13.27;;;9.20;99.90;;;;;;10414689;28;20229;-78
2021/04/11 21:59:44;;;;;;;11.87;11.07;;;9.20;99.90;;;;;;10441468;28;20579;-78
2021/04/11 22:05:01;;;;;;;11.63;10.83;;;9.10;99.90;;;;;;10443671;28;20235;-78
2021/04/11 22:10:09;;;;;;;12.83;11.93;;;9.00;99.90;;;;;;10433772;28;20255;-78
2021/04/11 22:15:15;;;;;;;12.33;11.43;;;9.00;99.90;;;;;;10421446;28;20776;-78
2021/04/11 22:20:24;;;;;;;12.10;11.20;;;8.90;99.90;;;;;;10405582;28;20639;-78
2021/04/11 22:25:32;;;;;;;11.10;10.50;;;8.90;99.90;;;;;;10405660;28;20741;-78
2021/04/11 22:30:37;;;;;;;10.60;9.80;;;8.80;99.90;;;;;;10403403;28;20253;-77
2021/04/11 22:35:47;;;;;;;10.80;10.10;;;8.70;99.90;;;;;;10404853;28;20232;-77
2021/04/11 22:40:55;;;;;;;10.57;9.90;;;8.60;99.90;;;;;;10404371;28;20797;-78
2021/04/11 22:46:02;;;;;;;13.83;12.83;;;8.40;99.90;;;;;;10421445;28;20190;-78
2021/04/11 22:51:11;;;;;;;14.53;13.53;;;8.30;99.90;;;;;;10405097;28;20222;-77
2021/04/11 22:56:18;;;;;;;14.57;13.57;;;8.20;99.90;;;;;;10412786;28;20209;-78
2021/04/11 23:01:27;;;;;;;13.50;12.60;;;8.20;99.90;;;;;;10428100;28;20233;-77
2021/04/11 23:06:36;;;;;;;14.07;13.07;;;8.20;99.90;;;;;;10427714;28;20226;-77
2021/04/11 23:11:43;;;;;;;15.00;14.00;;;8.20;99.90;;;;;;10412626;28;20213;-77
2021/04/11 23:16:56;;;;;;;14.00;13.10;;;8.20;99.90;;;;;;10427258;28;20228;-77
2021/04/11 23:22:06;;;;;;;12.70;11.90;;;8.20;99.90;;;;;;10411415;28;20252;-77
2021/04/11 23:27:16;;;;;;;12.57;11.77;;;8.10;99.90;;;;;;10411410;28;20609;-77
2021/04/11 23:32:28;;;;;;;12.07;11.27;;;8.00;99.90;;;;;;10425989;28;20594;-77
2021/04/11 23:37:35;;;;;;;11.97;11.23;;;7.90;99.90;;;;;;10410769;28;20194;-77
2021/04/11 23:42:50;;;;;;;10.83;10.13;;;7.90;99.90;;;;;;10411360;28;20555;-77
2021/04/11 23:48:14;;;;;;;10.40;9.80;;;7.80;99.90;;;;;;10410354;28;20276;-77
2021/04/11 23:53:28;;;;;;;9.77;9.20;;;7.80;99.90;;;;;;10409033;28;20221;-77
2021/04/11 23:58:34;;;;;;;7.80;7.40;;;7.70;99.90;;;;;;10410136;28;20226;-77
